Time;durP1;ratioP1;P1;durP2;ratioP2;P2;SDS_P1;SDS_P2;PMS_P1;PMS_P2;Temp;Humidity;BMP_temperature;BMP_pressure;BME280_temperature;BME280_humidity;BME280_pressure;Samples;Min_cycle;Max_cycle;Signal;HPM_P1;HPM_P2
2024/01/24 00:01:13;;;;;;;1.23;0.40;;;;;;;;;;4937906;29;20114;-79
2024/01/24 00:03:40;;;;;;;3.60;0.75;;;;;;;;;;4938247;29;20131;-77
2024/01/24 00:06:06;;;;;;;2.97;0.70;;;;;;;;;;4954219;29;20535;-78
2024/01/24 00:08:35;;;;;;;4.82;0.90;;;;;;;;;;4938107;29;20102;-79
2024/01/24 00:11:01;;;;;;;5.90;1.55;;;;;;;;;;4938453;29;20039;-78
2024/01/24 00:13:29;;;;;;;5.35;0.70;;;;;;;;;;4937788;29;20043;-78
2024/01/24 00:15:54;;;;;;;2.50;0.73;;;;;;;;;;4922308;29;20458;-78
2024/01/24 00:18:21;;;;;;;4.53;0.93;;;;;;;;;;4938249;29;20035;-78
2024/01/24 00:20:50;;;;;;;1.85;0.50;;;;;;;;;;4921439;29;20089;-79
2024/01/24 00:23:16;;;;;;;3.88;0.85;;;;;;;;;;4921918;29;20038;-79
2024/01/24 00:25:46;;;;;;;1.65;0.50;;;;;;;;;;4937298;29;20042;-79
2024/01/24 00:28:15;;;;;;;2.58;0.80;;;;;;;;;;4937729;29;20035;-78
2024/01/24 00:30:42;;;;;;;7.38;0.90;;;;;;;;;;4955196;29;20035;-78
2024/01/24 00:33:13;;;;;;;;;;;;;;;;;;4945660;29;20043;-77
2024/01/24 00:35:41;;;;;;;1.70;0.43;;;;;;;;;;4926677;29;19926;-78
2024/01/24 00:38:09;;;;;;;1.92;0.60;;;;;;;;;;4951280;29;20403;-79
2024/01/24 00:40:35;;;;;;;3.15;0.70;;;;;;;;;;4921796;29;20035;-78
2024/01/24 00:43:02;;;;;;;4.40;1.05;;;;;;;;;;4921990;29;20035;-79
2024/01/24 00:45:28;;;;;;;1.55;0.60;;;;;;;;;;4953687;29;20042;-78
2024/01/24 00:47:54;;;;;;;2.40;0.70;;;;;;;;;;4955027;29;20121;-77
2024/01/24 00:50:21;;;;;;;3.38;0.70;;;;;;;;;;4937947;29;20043;-78
2024/01/24 00:52:51;;;;;;;1.63;0.75;;;;;;;;;;4954635;29;20062;-78
2024/01/24 00:55:17;;;;;;;1.88;0.77;;;;;;;;;;4942841;29;20079;-78
2024/01/24 00:57:43;;;;;;;4.00;0.70;;;;;;;;;;4964772;29;20118;-78
2024/01/24 01:00:14;;;;;;;1.17;0.50;;;;;;;;;;4955638;29;20042;-77
2024/01/24 01:02:40;;;;;;;4.07;0.70;;;;;;;;;;4954862;29;20027;-79
2024/01/24 01:05:08;;;;;;;3.67;1.10;;;;;;;;;;4940140;29;20027;-80
2024/01/24 01:07:34;;;;;;;3.60;1.00;;;;;;;;;;4938172;29;20380;-79
2024/01/24 01:09:59;;;;;;;3.90;0.88;;;;;;;;;;4937817;29;20414;-78
2024/01/24 01:12:25;;;;;;;1.80;0.70;;;;;;;;;;4921473;29;20039;-79
2024/01/24 01:14:50;;;;;;;3.15;0.80;;;;;;;;;;4937582;29;20046;-79
2024/01/24 01:17:16;;;;;;;6.63;0.93;;;;;;;;;;4953727;29;20545;-79
2024/01/24 01:19:41;;;;;;;2.25;0.85;;;;;;;;;;4918832;29;20039;-79
2024/01/24 01:22:07;;;;;;;4.50;1.30;;;;;;;;;;4920677;29;20113;-78
2024/01/24 01:24:32;;;;;;;5.70;0.85;;;;;;;;;;4907495;29;20134;-80
2024/01/24 01:26:58;;;;;;;3.22;0.82;;;;;;;;;;4945834;29;20083;-79
2024/01/24 01:29:23;;;;;;;5.68;0.75;;;;;;;;;;4944071;29;20053;-79
2024/01/24 01:31:49;;;;;;;7.13;0.80;;;;;;;;;;4930397;29;20040;-79
2024/01/24 01:34:15;;;;;;;2.38;0.60;;;;;;;;;;4951348;29;20058;-78
2024/01/24 01:36:43;;;;;;;3.88;1.30;;;;;;;;;;4941141;28;20019;-80
2024/01/24 01:39:09;;;;;;;6.43;1.00;;;;;;;;;;4983238;28;20081;-79
2024/01/24 01:41:36;;;;;;;4.10;0.80;;;;;;;;;;4951512;29;20023;-79
2024/01/24 01:44:02;;;;;;;6.43;0.90;;;;;;;;;;4982506;28;20026;-79
2024/01/24 01:46:28;;;;;;;2.28;0.70;;;;;;;;;;4966678;28;20025;-79
2024/01/24 01:48:55;;;;;;;3.45;0.80;;;;;;;;;;4957458;29;20030;-79
2024/01/24 01:51:22;;;;;;;3.33;0.75;;;;;;;;;;4932021;29;20047;-79
2024/01/24 01:53:50;;;;;;;3.78;0.70;;;;;;;;;;4941107;29;20043;-79
2024/01/24 01:56:18;;;;;;;;;;;;;;;;;;4909968;29;20503;-78
2024/01/24 01:58:48;;;;;;;5.78;0.70;;;;;;;;;;4958965;29;19910;-77
2024/01/24 02:01:16;;;;;;;5.50;1.48;;;;;;;;;;4956752;29;20039;-78
2024/01/24 02:03:46;;;;;;;2.47;0.70;;;;;;;;;;4959705;29;20041;-78
2024/01/24 02:06:12;;;;;;;2.55;0.75;;;;;;;;;;4927087;29;20169;-79
2024/01/24 02:08:42;;;;;;;2.55;0.90;;;;;;;;;;4957831;29;20525;-79
2024/01/24 02:11:09;;;;;;;4.70;0.73;;;;;;;;;;4958243;29;20398;-79
2024/01/24 02:13:34;;;;;;;5.07;0.80;;;;;;;;;;4940649;29;20050;-78
2024/01/24 02:16:00;;;;;;;5.40;1.08;;;;;;;;;;4940874;29;20027;-79
2024/01/24 02:18:26;;;;;;;3.75;1.00;;;;;;;;;;4930134;29;20034;-78
2024/01/24 02:20:56;;;;;;;3.60;0.82;;;;;;;;;;4941173;29;20059;-80
2024/01/24 02:23:25;;;;;;;6.70;1.30;;;;;;;;;;4952133;29;20411;-77
2024/01/24 02:25:52;;;;;;;7.57;1.10;;;;;;;;;;4941029;29;20406;-78
2024/01/24 02:28:20;;;;;;;;;;;;;;;;;;4941793;29;20090;-78
2024/01/24 02:30:46;;;;;;;2.83;0.82;;;;;;;;;;4925860;29;19914;-78
2024/01/24 02:33:12;;;;;;;5.90;0.93;;;;;;;;;;4940867;29;20035;-78
2024/01/24 02:35:38;;;;;;;3.28;1.00;;;;;;;;;;4924529;29;20075;-78
2024/01/24 02:38:05;;;;;;;7.60;1.40;;;;;;;;;;4924262;29;20036;-78
2024/01/24 02:40:34;;;;;;;3.55;0.90;;;;;;;;;;4924854;29;20483;-79
2024/01/24 02:43:04;;;;;;;3.30;0.88;;;;;;;;;;4957178;29;20122;-78
2024/01/24 02:45:29;;;;;;;6.15;1.40;;;;;;;;;;4956988;29;20041;-78
2024/01/24 02:47:55;;;;;;;3.47;0.95;;;;;;;;;;4939439;29;20130;-78
2024/01/24 02:50:21;;;;;;;6.88;1.00;;;;;;;;;;4939822;29;20067;-77
2024/01/24 02:52:47;;;;;;;4.07;0.90;;;;;;;;;;4939856;29;20058;-77
2024/01/24 02:55:15;;;;;;;4.82;1.10;;;;;;;;;;4955663;29;20114;-78
2024/01/24 02:57:42;;;;;;;3.08;1.13;;;;;;;;;;4924654;29;20144;-77
2024/01/24 03:00:08;;;;;;;2.92;0.90;;;;;;;;;;4956759;29;20023;-78
2024/01/24 03:02:34;;;;;;;7.43;0.88;;;;;;;;;;4957540;29;20039;-78
2024/01/24 03:05:00;;;;;;;4.80;1.15;;;;;;;;;;4955746;29;20035;-77
2024/01/24 03:07:26;;;;;;;6.15;1.10;;;;;;;;;;4924474;29;20039;-77
2024/01/24 03:09:52;;;;;;;3.33;0.82;;;;;;;;;;4939144;29;20038;-78
2024/01/24 03:12:19;;;;;;;6.35;1.10;;;;;;;;;;4924295;29;20130;-78
2024/01/24 03:14:44;;;;;;;7.28;0.93;;;;;;;;;;4940984;29;20032;-79
2024/01/24 03:17:11;;;;;;;5.35;0.98;;;;;;;;;;4942430;29;20031;-78
2024/01/24 03:19:38;;;;;;;6.28;0.90;;;;;;;;;;4940767;29;20038;-79
2024/01/24 03:22:03;;;;;;;6.45;1.50;;;;;;;;;;4925800;29;20036;-79
2024/01/24 03:24:29;;;;;;;3.53;1.10;;;;;;;;;;4944573;29;20031;-78
2024/01/24 03:26:56;;;;;;;4.93;1.15;;;;;;;;;;4928164;29;20145;-79
2024/01/24 03:29:22;;;;;;;4.38;0.98;;;;;;;;;;4937621;29;20036;-78
2024/01/24 03:31:47;;;;;;;8.75;1.63;;;;;;;;;;4968345;29;20525;-78
2024/01/24 03:34:14;;;;;;;3.42;0.95;;;;;;;;;;4954847;29;20035;-80
2024/01/24 03:36:40;;;;;;;2.63;0.85;;;;;;;;;;4925210;29;20124;-79
2024/01/24 03:39:05;;;;;;;4.93;1.42;;;;;;;;;;4944271;29;20050;-78
2024/01/24 03:41:31;;;;;;;5.30;1.27;;;;;;;;;;4957408;29;20033;-78
2024/01/24 03:43:59;;;;;;;2.83;0.80;;;;;;;;;;4902747;29;20067;-78
2024/01/24 03:46:24;;;;;;;3.15;0.90;;;;;;;;;;4940531;29;20035;-78
2024/01/24 03:48:51;;;;;;;3.60;0.95;;;;;;;;;;4907828;29;20457;-79
2024/01/24 03:51:17;;;;;;;8.48;1.20;;;;;;;;;;4940433;29;20043;-78
2024/01/24 03:53:42;;;;;;;4.53;0.98;;;;;;;;;;4958232;29;20043;-78
2024/01/24 03:56:08;;;;;;;3.22;0.60;;;;;;;;;;4943043;29;20038;-79
2024/01/24 03:58:33;;;;;;;6.22;0.98;;;;;;;;;;4941343;29;20035;-79
2024/01/24 04:00:59;;;;;;;4.40;0.75;;;;;;;;;;4956162;28;20037;-79
2024/01/24 04:03:25;;;;;;;2.25;0.63;;;;;;;;;;4955985;29;20114;-78
2024/01/24 04:05:53;;;;;;;2.78;0.77;;;;;;;;;;4940525;29;20039;-78
2024/01/24 04:08:19;;;;;;;1.52;0.60;;;;;;;;;;4948714;29;20043;-78
2024/01/24 04:10:45;;;;;;;2.22;0.90;;;;;;;;;;4965027;29;20065;-78
2024/01/24 04:13:11;;;;;;;2.83;0.90;;;;;;;;;;4971738;29;20061;-78
2024/01/24 04:15:38;;;;;;;2.33;0.55;;;;;;;;;;4957862;29;20054;-79
2024/01/24 04:18:04;;;;;;;1.17;0.50;;;;;;;;;;4941609;29;20043;-78
2024/01/24 04:20:29;;;;;;;2.30;0.60;;;;;;;;;;4949753;29;20118;-79
2024/01/24 04:22:55;;;;;;;3.17;0.60;;;;;;;;;;4922964;29;20031;-80
2024/01/24 04:25:21;;;;;;;1.30;0.47;;;;;;;;;;4933933;29;20507;-79
2024/01/24 04:27:48;;;;;;;1.83;0.50;;;;;;;;;;4937706;29;20039;-79
2024/01/24 04:30:16;;;;;;;3.25;0.60;;;;;;;;;;4936804;29;20069;-79
2024/01/24 04:32:42;;;;;;;2.58;0.55;;;;;;;;;;4960862;29;20043;-78
2024/01/24 04:35:08;;;;;;;1.30;0.65;;;;;;;;;;4944859;28;20147;-78
2024/01/24 04:37:35;;;;;;;1.55;0.40;;;;;;;;;;4961012;28;20031;-78
2024/01/24 04:40:06;;;;;;;2.88;0.70;;;;;;;;;;4961449;28;20035;-78
2024/01/24 04:42:32;;;;;;;4.22;0.60;;;;;;;;;;4944744;29;20016;-79
2024/01/24 04:44:59;;;;;;;2.05;0.60;;;;;;;;;;4951894;29;20041;-80
2024/01/24 04:47:25;;;;;;;3.35;0.73;;;;;;;;;;4962443;29;20070;-79
2024/01/24 04:49:51;;;;;;;3.35;0.55;;;;;;;;;;4930546;29;20401;-79
2024/01/24 04:52:17;;;;;;;3.88;0.80;;;;;;;;;;4959796;29;20023;-78
2024/01/24 04:54:45;;;;;;;3.55;0.60;;;;;;;;;;4939608;29;20038;-79
2024/01/24 04:57:10;;;;;;;0.68;0.40;;;;;;;;;;4955179;29;20035;-78
2024/01/24 04:59:36;;;;;;;2.03;0.70;;;;;;;;;;4957848;29;20039;-79
2024/01/24 05:02:05;;;;;;;3.20;1.33;;;;;;;;;;4954998;29;20063;-80
2024/01/24 05:04:34;;;;;;;2.55;0.65;;;;;;;;;;4919703;29;20123;-79
2024/01/24 05:07:07;;;;;;;2.63;0.70;;;;;;;;;;4937849;29;20035;-79
2024/01/24 05:09:35;;;;;;;2.50;0.70;;;;;;;;;;4957380;29;20538;-80
2024/01/24 05:12:02;;;;;;;1.60;0.70;;;;;;;;;;4943397;28;20058;-80
2024/01/24 05:14:36;;;;;;;2.40;0.63;;;;;;;;;;4939275;29;20035;-80
2024/01/24 05:17:10;;;;;;;4.45;0.80;;;;;;;;;;4945009;29;20031;-78
2024/01/24 05:19:36;;;;;;;1.52;0.55;;;;;;;;;;4941625;29;20042;-79
2024/01/24 05:22:03;;;;;;;3.20;0.70;;;;;;;;;;4942095;29;20023;-79
2024/01/24 05:24:31;;;;;;;2.95;0.60;;;;;;;;;;4957825;29;20145;-80
2024/01/24 05:26:57;;;;;;;1.85;0.80;;;;;;;;;;4942029;29;20114;-79
2024/01/24 05:29:29;;;;;;;2.22;0.70;;;;;;;;;;4942678;29;20499;-78
2024/01/24 05:31:54;;;;;;;4.60;0.47;;;;;;;;;;4958040;29;20118;-80
2024/01/24 05:34:21;;;;;;;3.10;0.70;;;;;;;;;;4925811;29;20526;-79
2024/01/24 05:36:46;;;;;;;2.00;0.63;;;;;;;;;;4942038;29;20043;-80
2024/01/24 05:39:15;;;;;;;1.50;0.52;;;;;;;;;;4958038;29;20384;-80
2024/01/24 05:41:46;;;;;;;1.77;0.50;;;;;;;;;;4959169;29;20027;-80
2024/01/24 05:44:11;;;;;;;4.47;0.60;;;;;;;;;;4942315;29;20077;-79
2024/01/24 05:46:38;;;;;;;1.83;0.52;;;;;;;;;;4926756;29;20047;-80
2024/01/24 05:49:04;;;;;;;1.80;0.70;;;;;;;;;;4928094;29;20031;-80
2024/01/24 05:51:30;;;;;;;2.25;0.50;;;;;;;;;;4942648;29;20039;-79
2024/01/24 05:53:55;;;;;;;3.72;0.70;;;;;;;;;;4912079;29;20406;-78
2024/01/24 05:56:21;;;;;;;4.47;0.65;;;;;;;;;;4960262;29;20600;-79
2024/01/24 05:58:47;;;;;;;2.97;0.70;;;;;;;;;;4941337;29;20020;-79
2024/01/24 06:01:20;;;;;;;2.25;0.43;;;;;;;;;;4920254;29;20110;-79
2024/01/24 06:03:49;;;;;;;2.47;0.90;;;;;;;;;;4936396;29;20133;-78
2024/01/24 06:06:15;;;;;;;1.65;0.52;;;;;;;;;;4969836;29;20061;-78
2024/01/24 06:08:44;;;;;;;3.40;0.93;;;;;;;;;;4941824;29;20047;-79
2024/01/24 06:11:09;;;;;;;2.20;0.80;;;;;;;;;;4959969;29;20046;-80
2024/01/24 06:13:44;;;;;;;2.58;0.70;;;;;;;;;;4954767;29;20055;-79
2024/01/24 06:16:11;;;;;;;1.27;0.50;;;;;;;;;;4930471;29;20039;-77
2024/01/24 06:18:39;;;;;;;2.40;0.73;;;;;;;;;;4942685;29;20047;-79
2024/01/24 06:21:10;;;;;;;2.92;0.52;;;;;;;;;;4927743;29;20053;-80
2024/01/24 06:23:36;;;;;;;1.33;0.47;;;;;;;;;;4958653;28;20442;-80
2024/01/24 06:26:03;;;;;;;1.88;0.45;;;;;;;;;;4943330;23;20051;-82
2024/01/24 06:28:31;;;;;;;2.35;0.45;;;;;;;;;;4943977;29;20035;-79
2024/01/24 06:30:57;;;;;;;1.37;0.63;;;;;;;;;;4969514;29;20039;-83
2024/01/24 06:33:24;;;;;;;2.38;0.55;;;;;;;;;;4921291;29;20520;-81
2024/01/24 06:35:49;;;;;;;2.70;0.65;;;;;;;;;;4937803;29;20120;-81
2024/01/24 06:38:15;;;;;;;2.05;0.60;;;;;;;;;;4942090;29;20031;-81
2024/01/24 06:40:43;;;;;;;0.73;0.38;;;;;;;;;;4948686;28;20044;-81
2024/01/24 06:43:11;;;;;;;1.23;0.50;;;;;;;;;;4913680;29;20032;-82
2024/01/24 06:45:36;;;;;;;3.20;0.52;;;;;;;;;;4931640;29;20039;-82
2024/01/24 06:48:02;;;;;;;0.85;0.32;;;;;;;;;;4915105;29;20031;-82
2024/01/24 06:50:29;;;;;;;0.43;0.22;;;;;;;;;;4912997;29;20482;-82
2024/01/24 06:52:54;;;;;;;0.60;0.20;;;;;;;;;;4943282;29;20042;-83
2024/01/24 06:55:20;;;;;;;0.43;0.40;;;;;;;;;;4912542;29;20040;-82
2024/01/24 06:57:48;;;;;;;1.77;0.50;;;;;;;;;;4912491;29;20031;-82
2024/01/24 07:00:14;;;;;;;0.68;0.30;;;;;;;;;;4931040;29;20038;-82
2024/01/24 07:02:41;;;;;;;3.47;0.13;;;;;;;;;;4929434;29;20039;-82
2024/01/24 07:05:07;;;;;;;0.32;0.10;;;;;;;;;;4928268;29;20035;-82
2024/01/24 07:07:33;;;;;;;0.75;0.20;;;;;;;;;;4931315;29;20070;-82
2024/01/24 07:09:58;;;;;;;1.00;0.40;;;;;;;;;;4920791;29;20051;-81
2024/01/24 07:12:24;;;;;;;0.38;0.13;;;;;;;;;;4922182;29;20390;-81
2024/01/24 07:14:51;;;;;;;1.17;0.22;;;;;;;;;;4936682;29;20031;-82
2024/01/24 07:17:16;;;;;;;0.73;0.30;;;;;;;;;;4923242;29;20057;-82
2024/01/24 07:19:42;;;;;;;0.20;0.13;;;;;;;;;;4930060;29;20047;-82
2024/01/24 07:22:08;;;;;;;0.68;0.20;;;;;;;;;;4944117;29;20067;-80
2024/01/24 07:24:33;;;;;;;1.45;0.25;;;;;;;;;;4932137;28;20047;-83
2024/01/24 07:26:59;;;;;;;0.10;0.10;;;;;;;;;;4948488;28;20023;-80
2024/01/24 07:29:25;;;;;;;0.47;0.20;;;;;;;;;;4981394;28;20039;-81
2024/01/24 07:31:51;;;;;;;0.88;0.35;;;;;;;;;;4965193;28;20046;-82
2024/01/24 07:34:17;;;;;;;0.50;0.20;;;;;;;;;;4949008;28;20015;-79
2024/01/24 07:36:42;;;;;;;0.60;0.32;;;;;;;;;;4942305;29;20042;-81
2024/01/24 07:39:08;;;;;;;0.73;0.22;;;;;;;;;;4927544;28;20114;-82
2024/01/24 07:41:34;;;;;;;3.75;0.20;;;;;;;;;;4924179;29;20026;-82
2024/01/24 07:44:01;;;;;;;0.17;0.10;;;;;;;;;;4929277;28;20037;-82
2024/01/24 07:46:27;;;;;;;2.58;0.50;;;;;;;;;;4937813;28;20038;-82
2024/01/24 07:48:55;;;;;;;0.82;0.25;;;;;;;;;;4967274;28;20099;-81
2024/01/24 07:51:20;;;;;;;0.45;0.30;;;;;;;;;;4929771;29;20456;-81
2024/01/24 07:53:47;;;;;;;1.08;0.22;;;;;;;;;;4915248;29;20035;-81
2024/01/24 07:56:13;;;;;;;0.82;0.30;;;;;;;;;;4929077;28;20043;-82
2024/01/24 07:58:40;;;;;;;0.22;0.10;;;;;;;;;;4942285;28;20031;-83
2024/01/24 08:01:07;;;;;;;0.77;0.38;;;;;;;;;;4934731;29;20118;-81
2024/01/24 08:03:33;;;;;;;0.77;0.22;;;;;;;;;;4920547;29;20447;-82
2024/01/24 08:05:58;;;;;;;0.93;0.25;;;;;;;;;;4925848;29;20039;-81
2024/01/24 08:08:24;;;;;;;2.53;0.47;;;;;;;;;;4928260;29;20035;-82
2024/01/24 08:10:52;;;;;;;0.88;0.30;;;;;;;;;;4943405;29;20042;-81
2024/01/24 08:13:17;;;;;;;1.60;0.30;;;;;;;;;;4945915;28;20031;-80
2024/01/24 08:15:43;;;;;;;1.00;0.40;;;;;;;;;;4926166;29;20046;-81
2024/01/24 08:18:08;;;;;;;0.73;0.20;;;;;;;;;;4930966;29;20038;-81
2024/01/24 08:20:34;;;;;;;1.67;0.40;;;;;;;;;;4916044;29;20403;-81
2024/01/24 08:23:00;;;;;;;1.77;0.40;;;;;;;;;;4946808;29;20031;-82
2024/01/24 08:25:26;;;;;;;4.13;0.40;;;;;;;;;;4926171;29;20576;-82
2024/01/24 08:27:52;;;;;;;4.72;1.23;;;;;;;;;;4908065;29;20024;-80
2024/01/24 08:30:19;;;;;;;1.73;0.40;;;;;;;;;;4918431;29;20054;-82
2024/01/24 08:32:44;;;;;;;0.43;0.25;;;;;;;;;;4915940;29;20043;-82
2024/01/24 08:35:10;;;;;;;1.35;0.30;;;;;;;;;;4953048;29;20035;-80
2024/01/24 08:37:35;;;;;;;0.60;0.30;;;;;;;;;;4942235;29;20023;-82
2024/01/24 08:40:02;;;;;;;2.42;0.63;;;;;;;;;;4943783;29;20062;-82
2024/01/24 08:42:29;;;;;;;1.95;0.40;;;;;;;;;;4958314;29;20023;-81
2024/01/24 08:44:55;;;;;;;2.80;0.63;;;;;;;;;;4932902;29;20039;-82
2024/01/24 08:47:21;;;;;;;0.90;0.30;;;;;;;;;;4913092;29;20577;-81
2024/01/24 08:49:47;;;;;;;1.98;0.60;;;;;;;;;;4933507;29;20033;-79
2024/01/24 08:52:13;;;;;;;1.02;0.60;;;;;;;;;;4909982;29;20067;-81
2024/01/24 08:54:39;;;;;;;1.25;0.40;;;;;;;;;;4930116;29;20031;-83
2024/01/24 08:57:04;;;;;;;1.02;0.65;;;;;;;;;;4921847;28;20035;-82
2024/01/24 08:59:30;;;;;;;1.35;0.70;;;;;;;;;;4929682;29;20058;-80
2024/01/24 09:01:56;;;;;;;2.78;0.60;;;;;;;;;;4925073;29;20042;-81
2024/01/24 09:04:23;;;;;;;0.90;0.50;;;;;;;;;;4940938;29;20062;-80
2024/01/24 09:06:49;;;;;;;1.05;0.40;;;;;;;;;;4926482;29;20062;-83
2024/01/24 09:09:25;;;;;;;3.55;0.70;;;;;;;;;;4940965;28;20024;-82
2024/01/24 09:11:51;;;;;;;2.70;0.38;;;;;;;;;;4937115;29;20067;-82
2024/01/24 09:14:16;;;;;;;1.85;0.55;;;;;;;;;;4941203;28;20095;-83
2024/01/24 09:16:42;;;;;;;3.08;0.75;;;;;;;;;;4927480;29;20040;-82
2024/01/24 09:19:07;;;;;;;3.88;0.80;;;;;;;;;;4893866;29;20122;-82
2024/01/24 09:21:33;;;;;;;3.78;0.70;;;;;;;;;;4910623;29;20028;-82
2024/01/24 09:23:59;;;;;;;3.60;1.00;;;;;;;;;;4924931;29;20039;-80
2024/01/24 09:26:25;;;;;;;4.97;0.90;;;;;;;;;;4925028;29;20050;-82
2024/01/24 09:28:51;;;;;;;5.00;0.90;;;;;;;;;;4911427;29;20036;-80
2024/01/24 09:31:17;;;;;;;4.85;0.80;;;;;;;;;;4944851;29;20055;-81
2024/01/24 09:33:42;;;;;;;4.35;0.82;;;;;;;;;;4926636;29;20062;-82
2024/01/24 09:36:08;;;;;;;6.93;0.88;;;;;;;;;;4930814;29;20032;-83
2024/01/24 09:38:34;;;;;;;4.90;1.33;;;;;;;;;;4946834;29;20023;-82
2024/01/24 09:41:04;;;;;;;6.28;0.90;;;;;;;;;;4942842;29;20063;-82
2024/01/24 09:43:31;;;;;;;6.40;1.23;;;;;;;;;;4923271;29;20114;-83
2024/01/24 09:45:57;;;;;;;4.78;1.02;;;;;;;;;;4910609;29;20023;-82
2024/01/24 09:48:23;;;;;;;8.15;1.45;;;;;;;;;;4921047;29;20058;-82
2024/01/24 09:50:49;;;;;;;7.85;1.42;;;;;;;;;;4924461;29;20476;-81
2024/01/24 09:53:19;;;;;;;7.28;1.70;;;;;;;;;;4924662;29;20103;-82
2024/01/24 09:55:45;;;;;;;6.05;1.42;;;;;;;;;;4939699;29;20031;-82
2024/01/24 09:58:11;;;;;;;9.98;1.40;;;;;;;;;;4915433;29;20031;-81
2024/01/24 10:00:37;;;;;;;14.40;2.08;;;;;;;;;;4929835;29;20027;-81
2024/01/24 10:03:04;;;;;;;11.70;1.90;;;;;;;;;;4934319;28;20031;-81
2024/01/24 10:05:30;;;;;;;9.15;1.90;;;;;;;;;;4913920;29;20038;-82
2024/01/24 10:07:56;;;;;;;11.30;1.75;;;;;;;;;;4954461;29;20410;-83
2024/01/24 10:10:23;;;;;;;14.40;2.03;;;;;;;;;;4939839;29;20126;-82
2024/01/24 10:12:54;;;;;;;10.88;1.95;;;;;;;;;;4956940;29;20039;-83
2024/01/24 10:15:21;;;;;;;15.40;2.25;;;;;;;;;;4954753;28;20039;-83
2024/01/24 10:17:53;;;;;;;13.65;2.40;;;;;;;;;;4976098;28;20102;-83
2024/01/24 10:20:18;;;;;;;15.57;2.28;;;;;;;;;;4953662;28;20038;-84
2024/01/24 10:22:47;;;;;;;15.77;2.53;;;;;;;;;;4954221;28;20011;-83
2024/01/24 10:25:13;;;;;;;11.43;1.92;;;;;;;;;;4969104;28;20046;-87
2024/01/24 10:27:41;;;;;;;9.85;1.67;;;;;;;;;;4968775;28;20149;-84
2024/01/24 10:30:08;;;;;;;14.10;2.25;;;;;;;;;;4945761;28;20027;-84
2024/01/24 11:01:11;;;;;;;12.52;2.20;;;;;;;;;;5950023;23;20039;-82
2024/01/24 11:03:42;;;;;;;14.52;2.15;;;;;;;;;;4962721;28;20098;-83
2024/01/24 11:06:12;;;;;;;11.30;1.92;;;;;;;;;;4928491;29;20070;-83
2024/01/24 11:08:49;;;;;;;14.93;2.35;;;;;;;;;;4940646;28;20039;-83
2024/01/24 11:11:18;;;;;;;12.98;2.30;;;;;;;;;;4934842;29;20097;-82
2024/01/24 11:13:44;;;;;;;12.23;1.58;;;;;;;;;;4933879;29;20059;-82
2024/01/24 11:16:27;;;;;;;11.80;2.38;;;;;;;;;;4931419;29;20106;-82
2024/01/24 11:18:56;;;;;;;7.18;1.92;;;;;;;;;;4931984;29;20031;-82
2024/01/24 11:21:22;;;;;;;12.60;2.45;;;;;;;;;;4951142;29;20066;-81
2024/01/24 11:23:49;;;;;;;10.48;1.70;;;;;;;;;;4924913;29;20031;-81
2024/01/24 11:26:14;;;;;;;57.67;25.55;;;;;;;;;;4937758;29;20064;-82
2024/01/24 11:28:40;;;;;;;8.10;1.98;;;;;;;;;;4963352;28;20023;-82
2024/01/24 11:31:07;;;;;;;12.38;2.40;;;;;;;;;;4947974;29;20058;-82
2024/01/24 11:33:32;;;;;;;9.10;1.77;;;;;;;;;;4946803;29;20026;-82
2024/01/24 11:36:01;;;;;;;10.60;1.80;;;;;;;;;;4934338;29;20512;-81
2024/01/24 11:38:27;;;;;;;9.37;2.40;;;;;;;;;;4927167;29;20031;-83
2024/01/24 11:40:56;;;;;;;13.63;1.98;;;;;;;;;;4928984;29;20269;-82
2024/01/24 11:43:33;;;;;;;12.25;1.65;;;;;;;;;;4927595;28;20046;-81
2024/01/24 11:46:00;;;;;;;11.77;1.95;;;;;;;;;;4944069;29;20066;-82
2024/01/24 11:48:27;;;;;;;11.02;1.80;;;;;;;;;;4943272;29;20082;-82
2024/01/24 11:50:55;;;;;;;8.45;2.38;;;;;;;;;;4927327;29;20562;-81
2024/01/24 11:53:21;;;;;;;10.32;1.75;;;;;;;;;;4923731;28;20495;-83
2024/01/24 11:56:06;;;;;;;15.10;2.08;;;;;;;;;;4931212;29;20033;-83
2024/01/24 11:58:36;;;;;;;9.05;1.48;;;;;;;;;;4931232;29;20043;-83
2024/01/24 12:01:05;;;;;;;11.07;1.88;;;;;;;;;;4928167;29;20117;-82
2024/01/24 12:03:32;;;;;;;11.70;2.20;;;;;;;;;;4928289;29;20550;-82
2024/01/24 12:05:59;;;;;;;12.50;2.08;;;;;;;;;;4911345;29;20069;-82
2024/01/24 12:08:29;;;;;;;11.43;2.08;;;;;;;;;;4927087;29;20059;-83
2024/01/24 12:10:58;;;;;;;9.43;1.45;;;;;;;;;;4911873;29;20118;-82
2024/01/24 12:13:33;;;;;;;17.60;2.55;;;;;;;;;;4926211;28;20030;-82
2024/01/24 12:16:01;;;;;;;10.95;1.80;;;;;;;;;;4958122;29;20118;-82
2024/01/24 12:18:28;;;;;;;13.10;2.22;;;;;;;;;;4923023;29;20084;-82
2024/01/24 12:21:03;;;;;;;13.38;2.95;;;;;;;;;;4912849;29;20039;-82
2024/01/24 12:23:28;;;;;;;15.98;2.10;;;;;;;;;;4941985;29;20031;-82
2024/01/24 12:25:54;;;;;;;16.02;2.28;;;;;;;;;;4942620;29;20057;-82
2024/01/24 12:28:24;;;;;;;16.50;2.97;;;;;;;;;;4924657;29;20078;-82
2024/01/24 12:30:59;;;;;;;12.68;2.10;;;;;;;;;;4905031;29;20067;-82
2024/01/24 12:33:30;;;;;;;20.00;3.20;;;;;;;;;;4926726;28;20039;-84
2024/01/24 12:36:02;;;;;;;15.98;2.30;;;;;;;;;;4956169;29;20050;-81
2024/01/24 12:38:27;;;;;;;13.98;2.42;;;;;;;;;;4924635;29;20471;-82
2024/01/24 12:40:55;;;;;;;12.35;2.60;;;;;;;;;;4909678;29;20043;-82
2024/01/24 12:43:21;;;;;;;15.32;2.53;;;;;;;;;;4924177;28;20025;-82
2024/01/24 12:45:47;;;;;;;11.10;2.22;;;;;;;;;;4928146;29;20027;-82
2024/01/24 12:48:18;;;;;;;14.10;2.10;;;;;;;;;;4908714;29;20051;-82
2024/01/24 12:50:45;;;;;;;13.90;2.88;;;;;;;;;;4908471;29;20027;-83
2024/01/24 12:53:13;;;;;;;13.57;2.33;;;;;;;;;;4908928;28;20057;-81
2024/01/24 12:55:44;;;;;;;14.18;2.50;;;;;;;;;;4923843;29;20126;-82
2024/01/24 12:58:13;;;;;;;12.18;2.70;;;;;;;;;;4909259;29;20110;-82
2024/01/24 13:00:42;;;;;;;22.35;2.75;;;;;;;;;;4944132;29;20054;-82
2024/01/24 13:03:08;;;;;;;18.10;2.65;;;;;;;;;;4910185;29;20439;-83
2024/01/24 13:05:35;;;;;;;14.40;2.15;;;;;;;;;;4938854;29;20035;-82
2024/01/24 13:08:00;;;;;;;14.93;3.42;;;;;;;;;;4936196;29;20032;-82
2024/01/24 13:10:34;;;;;;;11.90;2.22;;;;;;;;;;4941214;29;20095;-82
2024/01/24 13:13:01;;;;;;;15.98;2.83;;;;;;;;;;4925976;29;20066;-82
2024/01/24 13:15:32;;;;;;;11.10;1.88;;;;;;;;;;4927900;29;20031;-82
2024/01/24 13:17:58;;;;;;;11.30;2.08;;;;;;;;;;4944004;29;20024;-82
2024/01/24 13:20:23;;;;;;;8.32;1.85;;;;;;;;;;4957796;29;20046;-83
2024/01/24 13:22:50;;;;;;;13.35;2.45;;;;;;;;;;4928538;29;20087;-80
2024/01/24 13:25:15;;;;;;;17.73;2.53;;;;;;;;;;4927248;29;20040;-83
2024/01/24 13:27:43;;;;;;;14.90;2.00;;;;;;;;;;4933866;29;20027;-83
2024/01/24 13:30:14;;;;;;;14.40;2.40;;;;;;;;;;4913927;29;20047;-82
2024/01/24 13:32:41;;;;;;;13.80;2.10;;;;;;;;;;4945023;29;20042;-83
2024/01/24 13:35:06;;;;;;;17.73;2.55;;;;;;;;;;4931025;29;20511;-81
2024/01/24 13:37:32;;;;;;;16.42;2.58;;;;;;;;;;4910382;29;20124;-82
2024/01/24 13:39:59;;;;;;;16.73;3.45;;;;;;;;;;4916593;29;20046;-82
2024/01/24 13:42:27;;;;;;;14.32;2.50;;;;;;;;;;4881461;29;20068;-82
2024/01/24 13:44:54;;;;;;;16.15;3.03;;;;;;;;;;4950536;29;20134;-83
2024/01/24 13:47:19;;;;;;;21.05;3.33;;;;;;;;;;4948864;29;20051;-82
2024/01/24 13:49:45;;;;;;;13.27;2.22;;;;;;;;;;4949146;29;20027;-82
2024/01/24 13:52:12;;;;;;;15.70;2.70;;;;;;;;;;4949807;28;20042;-82
2024/01/24 13:54:38;;;;;;;20.05;2.78;;;;;;;;;;4962596;28;20035;-82
2024/01/24 13:57:06;;;;;;;17.48;2.80;;;;;;;;;;4958974;29;20039;-83
2024/01/24 13:59:33;;;;;;;14.38;2.53;;;;;;;;;;4935787;29;20067;-82
2024/01/24 14:02:03;;;;;;;18.42;3.30;;;;;;;;;;4921241;29;20031;-83
2024/01/24 14:04:31;;;;;;;15.63;3.33;;;;;;;;;;4943692;29;20390;-83
2024/01/24 14:06:57;;;;;;;18.52;2.95;;;;;;;;;;4923023;29;20044;-81
2024/01/24 14:09:25;;;;;;;14.60;2.38;;;;;;;;;;4960608;28;20036;-82
2024/01/24 14:11:55;;;;;;;12.45;2.53;;;;;;;;;;4925652;29;20039;-81
2024/01/24 14:14:22;;;;;;;17.95;2.95;;;;;;;;;;4940303;29;20036;-81
2024/01/24 14:16:47;;;;;;;15.20;2.33;;;;;;;;;;4910976;29;20023;-82
2024/01/24 14:19:14;;;;;;;17.67;3.65;;;;;;;;;;4926518;29;20039;-81
2024/01/24 14:21:43;;;;;;;14.55;2.50;;;;;;;;;;4942778;29;20031;-82
2024/01/24 14:24:09;;;;;;;32.60;10.50;;;;;;;;;;4926608;29;20074;-80
2024/01/24 14:26:35;;;;;;;21.90;3.22;;;;;;;;;;4927767;29;20031;-82
2024/01/24 14:29:00;;;;;;;20.45;3.75;;;;;;;;;;4927410;29;20031;-82
2024/01/24 14:31:26;;;;;;;19.35;2.72;;;;;;;;;;4931523;29;20091;-81
2024/01/24 14:33:53;;;;;;;15.57;2.78;;;;;;;;;;4910723;29;20483;-80
2024/01/24 14:36:18;;;;;;;18.08;4.20;;;;;;;;;;4907613;29;20074;-81
2024/01/24 14:38:48;;;;;;;19.55;3.50;;;;;;;;;;4908041;29;20051;-82
2024/01/24 14:41:13;;;;;;;20.42;2.45;;;;;;;;;;4908486;29;20167;-82
2024/01/24 14:43:41;;;;;;;14.00;3.00;;;;;;;;;;4906477;29;20067;-82
2024/01/24 14:46:07;;;;;;;19.80;3.07;;;;;;;;;;4922391;29;20032;-82
2024/01/24 14:48:36;;;;;;;14.43;2.78;;;;;;;;;;4939892;29;20428;-82
2024/01/24 14:51:02;;;;;;;14.57;2.35;;;;;;;;;;4923850;29;20046;-82
2024/01/24 14:53:28;;;;;;;15.35;2.60;;;;;;;;;;4908607;29;20071;-82
2024/01/24 14:55:58;;;;;;;11.60;2.33;;;;;;;;;;4910252;29;20036;-82
2024/01/24 14:58:28;;;;;;;22.35;2.95;;;;;;;;;;4910611;29;20547;-82
2024/01/24 15:00:57;;;;;;;15.80;1.98;;;;;;;;;;4910539;29;20407;-82
2024/01/24 15:03:23;;;;;;;16.00;3.45;;;;;;;;;;4939623;29;20036;-82
2024/01/24 15:05:52;;;;;;;13.82;2.67;;;;;;;;;;4907004;29;20047;-80
2024/01/24 15:08:18;;;;;;;18.63;3.22;;;;;;;;;;4908848;29;20036;-81